createdAt,value
2023-02-16T00:00:43.175Z,66.75
2023-02-16T00:03:15.331Z,73.50
2023-02-16T00:05:42.196Z,73.72
2023-02-16T00:08:08.870Z,72.13
2023-02-16T00:10:36.439Z,63.13
2023-02-16T00:13:06.055Z,69.32
2023-02-16T00:15:32.787Z,70.78
2023-02-16T00:18:00.171Z,68.20
2023-02-16T00:20:26.817Z,73.55
2023-02-16T00:22:53.450Z,69.80
2023-02-16T00:25:20.127Z,70.22
2023-02-16T00:27:46.767Z,75.22
2023-02-16T00:30:18.281Z,70.63
2023-02-16T00:32:44.955Z,69.90
2023-02-16T00:35:18.549Z,66.50
2023-02-16T00:37:46.169Z,69.78
2023-02-16T00:40:13.732Z,68.53
2023-02-16T00:42:40.398Z,66.50
2023-02-16T00:45:11.077Z,74.25
2023-02-16T00:47:41.804Z,69.40
2023-02-16T00:50:15.143Z,71.10
2023-02-16T00:52:41.947Z,68.82
2023-02-16T00:55:19.533Z,68.95
2023-02-16T00:57:55.692Z,72.57
2023-02-16T01:02:56.826Z,72.45
2023-02-16T01:05:23.524Z,69.20
2023-02-16T01:07:50.228Z,68.82
2023-02-16T01:10:20.090Z,66.72
2023-02-16T01:12:46.659Z,70.70
2023-02-16T01:15:14.234Z,68.78
2023-02-16T01:17:40.904Z,71.20
2023-02-16T01:20:15.589Z,72.90
2023-02-16T01:22:42.171Z,66.60
2023-02-16T01:25:08.984Z,68.85
2023-02-16T01:27:37.482Z,69.55
2023-02-16T01:30:11.267Z,67.70
2023-02-16T01:32:37.958Z,68.65
2023-02-16T01:35:04.921Z,70.53
2023-02-16T01:37:31.588Z,73.10
2023-02-16T01:39:58.191Z,72.55
2023-02-16T01:42:41.315Z,68.82
2023-02-16T01:45:15.980Z,67.80
2023-02-16T01:47:47.729Z,76.10
2023-02-16T01:50:17.476Z,70.18
2023-02-16T01:52:47.852Z,68.63
2023-02-16T01:55:47.983Z,67.10
2023-02-16T01:58:24.585Z,66.07
2023-02-16T02:03:34.512Z,70.53
2023-02-16T02:06:01.111Z,72.72
2023-02-16T02:08:45.271Z,72.60
2023-02-16T02:11:27.890Z,70.43
2023-02-16T02:14:07.429Z,71.70
2023-02-16T02:16:34.092Z,70.97
2023-02-16T02:19:00.793Z,68.22
2023-02-16T02:22:01.121Z,74.25
2023-02-16T02:24:30.581Z,77.57
2023-02-16T02:27:08.285Z,71.68
2023-02-16T02:30:01.550Z,72.15
2023-02-16T02:32:52.594Z,79.32
2023-02-16T02:35:31.279Z,75.63
2023-02-16T02:38:33.334Z,73.43
2023-02-16T02:41:41.172Z,73.93
2023-02-16T02:44:07.864Z,73.22
2023-02-16T02:46:34.804Z,77.55
2023-02-16T02:49:01.535Z,74.47
2023-02-16T02:51:28.267Z,77.18
2023-02-16T02:54:11.982Z,75.18
2023-02-16T02:56:39.345Z,71.32
2023-02-16T02:59:07.364Z,75.30
2023-02-16T03:01:34.432Z,77.68
2023-02-16T03:04:01.084Z,78.03
2023-02-16T03:06:30.308Z,74.63
2023-02-16T03:09:02.573Z,75.47
2023-02-16T03:11:29.355Z,77.05
2023-02-16T03:14:07.246Z,77.15
2023-02-16T03:16:45.538Z,74.57
2023-02-16T03:19:13.228Z,72.00
2023-02-16T03:21:39.928Z,78.22
2023-02-16T03:24:09.123Z,71.63
2023-02-16T03:26:36.315Z,74.43
2023-02-16T03:29:02.987Z,80.03
2023-02-16T03:31:34.718Z,72.32
2023-02-16T03:34:01.504Z,78.70
2023-02-16T03:36:29.473Z,73.85
2023-02-16T03:38:56.308Z,73.07
2023-02-16T03:41:23.997Z,80.45
2023-02-16T03:43:50.644Z,74.90
2023-02-16T03:46:17.326Z,73.07
2023-02-16T03:48:43.943Z,75.22
2023-02-16T03:51:10.554Z,79.22
2023-02-16T03:53:37.215Z,73.50
2023-02-16T03:56:03.862Z,73.47
2023-02-16T03:58:30.525Z,82.22
2023-02-16T04:00:57.177Z,74.47
2023-02-16T04:03:23.778Z,79.65
2023-02-16T04:05:53.088Z,76.13
2023-02-16T04:08:19.764Z,80.07
2023-02-16T04:10:46.417Z,71.32
2023-02-16T04:13:13.082Z,77.40
2023-02-16T04:15:39.859Z,78.57
2023-02-16T04:18:06.576Z,77.97
2023-02-16T04:20:33.752Z,78.70
2023-02-16T04:23:00.763Z,82.45
2023-02-16T04:25:27.674Z,80.65
2023-02-16T04:27:54.463Z,79.75
2023-02-16T04:30:25.997Z,75.70
2023-02-16T04:32:52.829Z,77.25
2023-02-16T04:35:19.634Z,84.95
2023-02-16T04:37:46.281Z,84.82
2023-02-16T04:40:13.907Z,78.80
2023-02-16T04:42:43.928Z,81.97
2023-02-16T04:47:37.585Z,81.28
2023-02-16T04:50:04.760Z,77.30
2023-02-16T04:52:31.496Z,74.68
2023-02-16T04:54:58.208Z,81.82
2023-02-16T04:57:24.975Z,81.47
2023-02-16T04:59:51.593Z,81.75
2023-02-16T05:02:18.281Z,74.68
2023-02-16T05:04:45.053Z,78.18
2023-02-16T05:07:12.053Z,81.05
2023-02-16T05:09:38.676Z,78.05
2023-02-16T05:12:05.401Z,79.63
2023-02-16T05:14:33.262Z,74.13
2023-02-16T05:16:59.945Z,80.50
2023-02-16T05:19:26.571Z,80.50
2023-02-16T05:21:53.168Z,82.50
2023-02-16T05:24:19.841Z,79.90
2023-02-16T05:26:46.508Z,77.10
2023-02-16T05:29:13.197Z,75.68
2023-02-16T05:31:39.949Z,82.10
2023-02-16T05:34:06.601Z,79.00
2023-02-16T05:36:33.225Z,77.57
2023-02-16T05:38:59.907Z,76.88
2023-02-16T05:41:26.575Z,77.70
2023-02-16T05:43:58.008Z,76.75
2023-02-16T05:46:25.039Z,81.57
2023-02-16T05:48:51.850Z,82.63
2023-02-16T05:51:18.843Z,76.63
2023-02-16T05:53:45.633Z,76.80
2023-02-16T05:56:12.483Z,73.07
2023-02-16T05:58:39.278Z,78.80
2023-02-16T06:01:06.269Z,67.07
2023-02-16T06:03:33.126Z,75.10
2023-02-16T06:06:00.577Z,81.57
2023-02-16T06:08:27.354Z,68.93
2023-02-16T06:10:54.287Z,73.53
2023-02-16T06:13:21.464Z,74.32
2023-02-16T06:15:48.164Z,73.43
2023-02-16T06:18:14.771Z,74.70
2023-02-16T06:20:41.630Z,71.57
2023-02-16T06:23:08.644Z,75.22
2023-02-16T06:25:35.280Z,71.40
2023-02-16T06:28:01.874Z,86.63
2023-02-16T06:30:29.203Z,72.57
2023-02-16T06:32:55.920Z,75.63
2023-02-16T06:35:22.534Z,76.72
2023-02-16T06:37:49.161Z,74.53
2023-02-16T06:40:16.237Z,83.28
2023-02-16T06:42:43.045Z,77.22
2023-02-16T06:45:09.925Z,73.60
2023-02-16T06:47:37.060Z,76.53
2023-02-16T06:50:04.991Z,70.32
2023-02-16T06:52:31.691Z,80.82
2023-02-16T06:54:58.291Z,75.25
2023-02-16T06:57:24.942Z,76.78
2023-02-16T06:59:51.569Z,76.57
2023-02-16T07:02:18.459Z,80.82
2023-02-16T07:04:45.078Z,72.03
2023-02-16T07:07:11.945Z,72.95
2023-02-16T07:09:38.720Z,73.60
2023-02-16T07:12:05.565Z,74.78
2023-02-16T07:14:32.293Z,81.90
2023-02-16T07:16:58.959Z,79.55
2023-02-16T07:19:25.690Z,71.47
2023-02-16T07:21:52.287Z,73.15
2023-02-16T07:24:18.939Z,77.65
2023-02-16T07:26:45.631Z,74.60
2023-02-16T07:29:12.221Z,67.95
2023-02-16T07:31:38.960Z,77.05
2023-02-16T07:34:05.765Z,79.20
2023-02-16T07:36:32.417Z,76.10
2023-02-16T07:38:59.038Z,76.03
2023-02-16T07:41:25.700Z,70.63
2023-02-16T07:43:52.348Z,74.30
2023-02-16T07:46:18.977Z,71.13
2023-02-16T07:48:49.287Z,74.55
2023-02-16T07:51:23.199Z,76.35
2023-02-16T07:53:50.027Z,70.68
2023-02-16T07:56:27.619Z,75.65
2023-02-16T07:58:58.226Z,69.57
2023-02-16T08:01:25.222Z,64.35
2023-02-16T08:03:54.969Z,66.78
2023-02-16T08:06:21.731Z,62.95
2023-02-16T08:08:48.456Z,60.55
2023-02-16T08:11:16.167Z,60.50
2023-02-16T08:13:43.700Z,58.58
2023-02-16T08:16:11.599Z,59.75
2023-02-16T08:18:38.856Z,57.25
2023-02-16T08:21:13.512Z,59.22
2023-02-16T08:23:44.718Z,62.63
2023-02-16T08:26:11.703Z,66.80
2023-02-16T08:28:38.415Z,64.72
2023-02-16T08:31:05.532Z,69.50
2023-02-16T08:33:32.392Z,63.72
2023-02-16T08:35:59.089Z,59.22
2023-02-16T08:38:25.668Z,62.35
2023-02-16T08:40:52.308Z,67.18
2023-02-16T08:43:18.999Z,66.30
2023-02-16T08:45:46.789Z,68.70
2023-02-16T08:48:13.914Z,69.10
2023-02-16T08:50:47.395Z,73.97
2023-02-16T08:53:14.403Z,72.85
2023-02-16T08:55:41.080Z,76.35
2023-02-16T08:58:07.730Z,72.15
2023-02-16T09:00:34.331Z,79.45
2023-02-16T09:03:01.072Z,76.35
2023-02-16T09:05:27.832Z,79.82
2023-02-16T09:07:55.095Z,78.25
2023-02-16T09:10:22.379Z,70.15
2023-02-16T09:12:49.402Z,76.93
2023-02-16T09:15:16.506Z,78.78
2023-02-16T09:17:43.510Z,80.00
2023-02-16T09:20:10.667Z,90.55
2023-02-16T09:22:37.296Z,91.40
2023-02-16T09:25:04.007Z,82.32
2023-02-16T09:27:30.678Z,90.82
2023-02-16T09:29:57.299Z,93.32
2023-02-16T09:32:28.603Z,91.35
2023-02-16T09:34:55.519Z,90.80
2023-02-16T09:37:22.288Z,86.03
2023-02-16T09:39:48.956Z,86.68
2023-02-16T09:42:20.429Z,96.38
2023-02-16T09:45:12.166Z,82.40
2023-02-16T09:47:40.846Z,93.45
2023-02-16T09:50:38.302Z,105.22
2023-02-16T09:53:08.453Z,104.10
2023-02-16T09:55:47.543Z,106.55
2023-02-16T09:58:21.751Z,102.97
2023-02-16T10:00:52.089Z,101.32
2023-02-16T10:03:46.656Z,107.28
2023-02-16T10:06:13.284Z,102.03
2023-02-16T10:08:53.891Z,121.78
2023-02-16T10:11:30.828Z,105.25
2023-02-16T10:13:58.857Z,102.10
2023-02-16T10:16:30.085Z,100.50
2023-02-16T10:18:56.731Z,92.78
2023-02-16T10:21:25.324Z,95.03
2023-02-16T10:24:02.882Z,85.30
2023-02-16T10:26:34.872Z,96.80
2023-02-16T10:29:21.783Z,83.45
2023-02-16T10:31:54.694Z,85.93
2023-02-16T10:34:37.026Z,78.97
2023-02-16T10:40:28.751Z,80.82
2023-02-16T10:43:06.219Z,74.80
2023-02-16T10:45:56.596Z,74.20
2023-02-16T10:48:23.456Z,67.40
2023-02-16T10:50:50.272Z,60.85
2023-02-16T10:53:33.764Z,71.82
2023-02-16T10:56:00.512Z,68.35
2023-02-16T10:58:36.670Z,65.30
2023-02-16T11:01:11.786Z,60.10
2023-02-16T11:03:43.875Z,60.90
2023-02-16T11:06:18.591Z,62.83
2023-02-16T11:08:49.535Z,69.30
2023-02-16T11:11:16.227Z,61.95
2023-02-16T11:13:42.911Z,71.13
2023-02-16T11:16:11.486Z,59.15
2023-02-16T11:18:42.834Z,52.78
2023-02-16T11:21:10.323Z,51.65
2023-02-16T11:23:41.526Z,55.95
2023-02-16T11:26:22.398Z,49.35
2023-02-16T11:28:49.569Z,55.13
2023-02-16T11:31:31.831Z,55.65
2023-02-16T11:34:03.848Z,48.00
2023-02-16T11:36:34.531Z,47.35
2023-02-16T11:39:09.737Z,43.45
2023-02-16T11:41:37.688Z,42.45
2023-02-16T11:44:04.525Z,42.67
2023-02-16T11:46:39.013Z,43.40
2023-02-16T11:49:27.779Z,41.20
2023-02-16T11:51:54.466Z,39.38
2023-02-16T11:54:21.313Z,40.50
2023-02-16T11:57:08.281Z,42.95
2023-02-16T11:59:38.960Z,40.42
2023-02-16T12:02:08.437Z,38.30
2023-02-16T12:05:12.711Z,35.50
2023-02-16T12:08:00.854Z,35.30
2023-02-16T12:13:15.257Z,33.03
2023-02-16T12:16:15.087Z,35.10
2023-02-16T12:19:09.373Z,38.50
2023-02-16T12:24:22.849Z,31.15
2023-02-16T12:27:01.463Z,36.60
2023-02-16T12:30:06.149Z,31.95
2023-02-16T12:33:18.933Z,38.45
2023-02-16T12:36:01.678Z,33.42
2023-02-16T12:38:41.481Z,35.33
2023-02-16T12:41:40.149Z,32.90
2023-02-16T12:44:28.583Z,32.22
2023-02-16T12:47:04.922Z,31.15
2023-02-16T12:49:56.053Z,29.55
2023-02-16T12:52:38.929Z,29.58
2023-02-16T12:55:26.559Z,30.90
2023-02-16T12:58:04.089Z,35.15
2023-02-16T13:00:44.279Z,31.30
2023-02-16T13:03:19.626Z,29.08
2023-02-16T13:05:49.003Z,33.95
2023-02-16T13:08:36.872Z,29.52
2023-02-16T13:11:05.367Z,25.80
2023-02-16T13:13:33.340Z,25.65
2023-02-16T13:16:30.411Z,27.40
2023-02-16T13:18:57.548Z,30.67
2023-02-16T13:21:27.325Z,27.92
2023-02-16T13:24:23.681Z,25.70
2023-02-16T13:27:15.807Z,27.23
2023-02-16T13:30:03.550Z,25.42
2023-02-16T13:32:30.233Z,31.35
2023-02-16T13:35:24.564Z,29.33
2023-02-16T13:40:45.286Z,22.42
2023-02-16T13:43:30.046Z,25.90
2023-02-16T13:45:56.781Z,26.77
2023-02-16T13:48:35.823Z,26.00
2023-02-16T13:51:11.444Z,27.83
2023-02-16T13:53:41.645Z,25.77
2023-02-16T13:56:29.317Z,27.02
2023-02-16T13:59:00.114Z,27.50
2023-02-16T14:01:32.667Z,22.17
2023-02-16T14:03:59.950Z,29.58
2023-02-16T14:06:26.611Z,25.60
2023-02-16T14:09:16.643Z,23.83
2023-02-16T14:11:53.662Z,26.13
2023-02-16T14:14:30.393Z,28.15
2023-02-16T14:17:17.485Z,26.15
2023-02-16T14:19:55.849Z,30.50
2023-02-16T14:22:39.508Z,20.73
2023-02-16T14:25:26.881Z,24.13
2023-02-16T14:28:00.797Z,23.83
2023-02-16T14:30:45.257Z,18.05
2023-02-16T14:33:14.837Z,23.83
2023-02-16T14:35:43.354Z,24.10
2023-02-16T14:38:31.839Z,25.70
2023-02-16T14:41:13.186Z,24.60
2023-02-16T14:43:40.661Z,27.98
2023-02-16T14:46:10.297Z,29.65
2023-02-16T14:51:51.135Z,27.77
2023-02-16T14:54:50.106Z,28.00
2023-02-16T14:57:24.211Z,30.02
2023-02-16T14:59:56.883Z,29.20
2023-02-16T15:02:36.349Z,34.63
2023-02-16T15:05:22.940Z,28.73
2023-02-16T15:07:51.906Z,33.05
2023-02-16T15:10:25.643Z,32.72
2023-02-16T15:12:55.854Z,32.60
2023-02-16T15:15:29.905Z,35.80
2023-02-16T15:17:56.531Z,30.52
2023-02-16T15:20:28.305Z,30.98
2023-02-16T15:23:02.795Z,30.63
2023-02-16T15:25:34.505Z,30.13
2023-02-16T15:28:10.796Z,33.70
2023-02-16T15:30:47.886Z,34.55
2023-02-16T15:33:24.477Z,35.15
2023-02-16T15:36:07.525Z,35.63
2023-02-16T15:38:35.933Z,37.35
2023-02-16T15:41:08.930Z,35.03
2023-02-16T15:43:49.188Z,34.30
2023-02-16T15:46:36.185Z,34.78
2023-02-16T15:49:22.846Z,36.42
2023-02-16T15:51:49.518Z,34.42
2023-02-16T15:54:25.441Z,33.53
2023-02-16T15:56:52.992Z,31.73
2023-02-16T15:59:39.386Z,36.65
2023-02-16T16:02:27.487Z,34.60
2023-02-16T16:05:01.693Z,39.72
2023-02-16T16:07:33.331Z,28.77
2023-02-16T16:10:00.033Z,28.90
2023-02-16T16:12:26.676Z,32.90
2023-02-16T16:15:00.492Z,32.97
2023-02-16T16:17:34.266Z,29.38
2023-02-16T16:20:36.209Z,31.85
2023-02-16T16:23:22.935Z,30.42
2023-02-16T16:25:49.716Z,31.20
2023-02-16T16:28:28.775Z,35.17
2023-02-16T16:31:17.437Z,36.03
2023-02-16T16:34:06.220Z,32.47
2023-02-16T16:36:33.900Z,42.20
2023-02-16T16:39:18.859Z,33.30
2023-02-16T16:42:16.328Z,35.53
2023-02-16T16:44:45.189Z,38.85
2023-02-16T16:47:41.614Z,30.70
2023-02-16T16:50:11.091Z,36.63
2023-02-16T16:52:39.446Z,41.05
2023-02-16T16:55:21.179Z,37.00
2023-02-16T16:58:06.832Z,39.70
2023-02-16T17:00:37.859Z,37.20
2023-02-16T17:03:06.918Z,35.85
2023-02-16T17:05:34.703Z,36.55
2023-02-16T17:08:01.535Z,38.40
2023-02-16T17:10:28.279Z,36.33
2023-02-16T17:12:58.657Z,35.60
2023-02-16T17:16:01.121Z,37.47
2023-02-16T17:18:27.879Z,37.00
2023-02-16T17:20:54.632Z,31.23
2023-02-16T17:23:21.773Z,34.95
2023-02-16T17:25:48.578Z,35.33
2023-02-16T17:28:15.851Z,33.75
2023-02-16T17:30:42.692Z,35.15
2023-02-16T17:33:09.905Z,33.95
2023-02-16T17:35:37.775Z,32.10
2023-02-16T17:38:17.510Z,32.70
2023-02-16T17:40:46.992Z,29.48
2023-02-16T17:43:14.048Z,30.98
2023-02-16T17:45:41.250Z,31.17
2023-02-16T17:48:08.896Z,33.58
2023-02-16T17:50:35.723Z,30.02
2023-02-16T17:53:02.501Z,33.65
2023-02-16T17:55:29.159Z,30.48
2023-02-16T17:57:55.767Z,27.38
2023-02-16T18:00:22.521Z,33.13
2023-02-16T18:02:49.116Z,29.60
2023-02-16T18:05:15.803Z,27.10
2023-02-16T18:07:42.521Z,27.42
2023-02-16T18:10:15.457Z,26.95
2023-02-16T18:12:42.072Z,23.73
2023-02-16T18:15:08.896Z,23.90
2023-02-16T18:17:35.547Z,27.60
2023-02-16T18:20:02.597Z,28.70
2023-02-16T18:22:29.283Z,24.30
2023-02-16T18:24:55.966Z,24.38
2023-02-16T18:27:22.588Z,23.55
2023-02-16T18:29:49.307Z,22.23
2023-02-16T18:32:16.102Z,28.88
2023-02-16T18:34:42.760Z,27.92
2023-02-16T18:37:09.922Z,24.92
2023-02-16T18:39:36.697Z,30.35
2023-02-16T18:42:03.499Z,28.05
2023-02-16T18:44:30.214Z,25.77
2023-02-16T18:46:56.847Z,30.10
2023-02-16T18:49:23.508Z,30.00
2023-02-16T18:51:50.183Z,25.75
2023-02-16T18:54:16.798Z,32.75
2023-02-16T18:56:43.570Z,33.33
2023-02-16T18:59:10.272Z,33.30
2023-02-16T19:01:36.956Z,26.73
2023-02-16T19:04:03.828Z,29.83
2023-02-16T19:06:30.548Z,28.77
2023-02-16T19:08:57.204Z,29.35
2023-02-16T19:11:23.867Z,26.35
2023-02-16T19:13:50.600Z,30.63
2023-02-16T19:16:17.343Z,27.38
2023-02-16T19:18:43.999Z,31.23
2023-02-16T19:21:11.224Z,32.30
2023-02-16T19:23:38.043Z,33.10
2023-02-16T19:26:13.159Z,38.80
2023-02-16T19:28:40.009Z,31.15
2023-02-16T19:31:08.860Z,32.70
2023-02-16T19:33:35.733Z,31.65
2023-02-16T19:36:07.123Z,34.22
2023-02-16T19:38:33.927Z,36.15
2023-02-16T19:41:00.956Z,36.67
2023-02-16T19:43:27.618Z,35.97
2023-02-16T19:45:54.405Z,34.25
2023-02-16T19:48:21.095Z,35.08
2023-02-16T19:50:47.748Z,41.55
2023-02-16T19:53:14.467Z,37.53
2023-02-16T19:55:44.132Z,41.70
2023-02-16T19:58:10.743Z,35.47
2023-02-16T20:00:37.570Z,32.95
2023-02-16T20:03:04.440Z,35.25
2023-02-16T20:05:31.171Z,32.55
2023-02-16T20:07:58.202Z,37.30
2023-02-16T20:10:24.906Z,35.90
2023-02-16T20:12:51.488Z,34.53
2023-02-16T20:15:18.274Z,34.28
2023-02-16T20:17:44.944Z,33.38
2023-02-16T20:20:11.934Z,25.52
2023-02-16T20:22:38.621Z,22.00
2023-02-16T20:25:05.553Z,25.27
2023-02-16T20:27:32.242Z,27.05
2023-02-16T20:29:59.033Z,22.30
2023-02-16T20:32:26.260Z,25.88
2023-02-16T20:34:52.870Z,24.27
2023-02-16T20:37:19.565Z,24.15
2023-02-16T20:39:46.239Z,28.27
2023-02-16T20:42:12.895Z,20.45
2023-02-16T20:44:39.537Z,22.20
2023-02-16T20:47:06.184Z,23.55
2023-02-16T20:49:34.181Z,24.70
2023-02-16T20:52:00.859Z,22.38
2023-02-16T20:54:27.590Z,22.17
2023-02-16T20:56:54.344Z,20.90
2023-02-16T20:59:21.000Z,19.88
2023-02-16T21:01:48.736Z,20.85
2023-02-16T21:04:17.619Z,16.55
2023-02-16T21:06:44.362Z,15.32
2023-02-16T21:09:11.146Z,17.88
2023-02-16T21:11:38.073Z,17.50
2023-02-16T21:14:05.825Z,17.48
2023-02-16T21:16:32.866Z,18.27
2023-02-16T21:18:59.536Z,18.90
2023-02-16T21:21:26.367Z,20.25
2023-02-16T21:23:53.708Z,17.67
2023-02-16T21:26:21.361Z,17.38
2023-02-16T21:28:48.015Z,15.13
2023-02-16T21:31:17.187Z,13.82
2023-02-16T21:33:43.917Z,12.73
2023-02-16T21:36:18.377Z,10.73
2023-02-16T21:38:45.090Z,15.70
2023-02-16T21:41:19.882Z,10.23
2023-02-16T21:43:46.589Z,12.45
2023-02-16T21:46:13.324Z,10.73
2023-02-16T21:48:39.961Z,10.90
2023-02-16T21:51:06.639Z,12.10
2023-02-16T21:53:33.218Z,10.90
2023-02-16T21:56:07.615Z,12.68
2023-02-16T21:58:34.553Z,12.20
2023-02-16T22:01:01.305Z,12.90
2023-02-16T22:03:28.213Z,10.02
2023-02-16T22:05:54.840Z,11.70
2023-02-16T22:08:21.566Z,9.43
2023-02-16T22:10:48.234Z,10.95
2023-02-16T22:13:14.931Z,10.73
2023-02-16T22:15:41.573Z,9.15
2023-02-16T22:18:08.178Z,8.38
2023-02-16T22:20:34.892Z,8.77
2023-02-16T22:23:02.063Z,9.77
2023-02-16T22:25:28.670Z,8.13
2023-02-16T22:27:55.541Z,7.72
2023-02-16T22:30:22.329Z,8.48
2023-02-16T22:32:49.630Z,9.45
2023-02-16T22:35:16.408Z,8.38
2023-02-16T22:37:43.029Z,7.82
2023-02-16T22:40:09.886Z,8.35
2023-02-16T22:42:36.501Z,8.85
2023-02-16T22:45:03.750Z,9.43
2023-02-16T22:47:30.421Z,10.38
2023-02-16T22:49:57.160Z,7.60
2023-02-16T22:52:23.901Z,7.53
2023-02-16T22:54:50.950Z,8.98
2023-02-16T22:57:17.788Z,9.88
2023-02-16T22:59:44.488Z,9.07
2023-02-16T23:02:11.171Z,8.77
2023-02-16T23:04:37.927Z,9.55
2023-02-16T23:07:07.479Z,9.48
2023-02-16T23:09:34.168Z,9.05
2023-02-16T23:12:00.892Z,10.05
2023-02-16T23:14:29.195Z,10.07
2023-02-16T23:16:55.983Z,10.05
2023-02-16T23:19:24.793Z,10.32
2023-02-16T23:21:51.659Z,12.23
2023-02-16T23:24:20.342Z,11.57
2023-02-16T23:26:47.073Z,13.10
2023-02-16T23:29:13.816Z,12.05
2023-02-16T23:31:41.400Z,11.77
2023-02-16T23:34:08.317Z,10.93
2023-02-16T23:36:35.928Z,10.02
2023-02-16T23:39:04.588Z,11.88
2023-02-16T23:41:31.283Z,13.07
2023-02-16T23:43:59.983Z,15.15
2023-02-16T23:46:27.617Z,11.90
2023-02-16T23:48:54.272Z,10.30
2023-02-16T23:51:20.979Z,11.57
2023-02-16T23:53:47.665Z,10.75
2023-02-16T23:56:17.018Z,12.90
2023-02-16T23:58:44.059Z,12.98
